Time;durP1;ratioP1;P1;durP2;ratioP2;P2;SDS_P1;SDS_P2;PMS_P1;PMS_P2;Temp;Humidity;BMP_temperature;BMP_pressure;BME280_temperature;BME280_humidity;BME280_pressure;Samples;Min_cycle;Max_cycle;Signal;HPM_P1;HPM_P2
2022/07/08 00:00:57;;;;;;;11.75;1.83;;;;;;;;;;5113007;28;20503;-67
2022/07/08 00:03:23;;;;;;;11.30;1.70;;;;;;;;;;5113061;28;20092;-67
2022/07/08 00:05:49;;;;;;;9.35;2.05;;;;;;;;;;5113463;28;20075;-67
2022/07/08 00:08:15;;;;;;;8.77;1.50;;;;;;;;;;5112965;28;20130;-67
2022/07/08 00:10:41;;;;;;;11.50;1.58;;;;;;;;;;5112633;28;20036;-67
2022/07/08 00:13:07;;;;;;;6.47;1.58;;;;;;;;;;5113568;28;20036;-67
2022/07/08 00:15:33;;;;;;;9.48;1.75;;;;;;;;;;5113368;28;20572;-67
2022/07/08 00:18:00;;;;;;;6.82;1.90;;;;;;;;;;5112474;28;20095;-67
2022/07/08 00:20:26;;;;;;;11.32;1.65;;;;;;;;;;5113276;27;20074;-67
2022/07/08 00:22:52;;;;;;;10.35;1.73;;;;;;;;;;5113176;28;20047;-67
2022/07/08 00:25:18;;;;;;;6.75;1.40;;;;;;;;;;5113666;27;20466;-67
2022/07/08 00:27:44;;;;;;;7.57;1.48;;;;;;;;;;5133616;27;20042;-67
2022/07/08 00:30:12;;;;;;;13.23;2.20;;;;;;;;;;5133649;27;20039;-67
2022/07/08 00:32:38;;;;;;;6.35;1.65;;;;;;;;;;5132505;27;20039;-67
2022/07/08 00:35:04;;;;;;;6.28;1.65;;;;;;;;;;5133662;27;20508;-67
2022/07/08 00:37:30;;;;;;;9.30;1.88;;;;;;;;;;5133639;27;20046;-67
2022/07/08 00:39:56;;;;;;;9.00;2.10;;;;;;;;;;5132878;27;20401;-67
2022/07/08 00:42:22;;;;;;;15.88;1.70;;;;;;;;;;5133270;27;20035;-67
2022/07/08 00:44:48;;;;;;;11.93;1.67;;;;;;;;;;5133343;27;20473;-67
2022/07/08 00:47:14;;;;;;;12.10;1.90;;;;;;;;;;5132297;27;20180;-67
2022/07/08 00:49:40;;;;;;;5.30;1.77;;;;;;;;;;5133251;27;20365;-68
2022/07/08 00:52:07;;;;;;;10.07;2.10;;;;;;;;;;5133186;27;20041;-67
2022/07/08 00:54:33;;;;;;;10.50;1.85;;;;;;;;;;5132446;27;20081;-67
2022/07/08 00:56:59;;;;;;;10.68;1.95;;;;;;;;;;5133128;27;20477;-67
2022/07/08 00:59:26;;;;;;;7.95;1.83;;;;;;;;;;5133199;27;20103;-67
2022/07/08 01:01:52;;;;;;;5.72;1.58;;;;;;;;;;5132061;27;20039;-67
2022/07/08 01:04:18;;;;;;;14.07;2.10;;;;;;;;;;5132629;27;20137;-67
2022/07/08 01:06:45;;;;;;;7.35;1.67;;;;;;;;;;5132673;27;20445;-67
2022/07/08 01:09:14;;;;;;;8.48;1.92;;;;;;;;;;5132318;27;20485;-67
2022/07/08 01:11:41;;;;;;;9.18;2.13;;;;;;;;;;5131562;27;20035;-67
2022/07/08 01:14:07;;;;;;;9.88;2.25;;;;;;;;;;5132636;27;20039;-67
2022/07/08 01:16:33;;;;;;;11.50;2.17;;;;;;;;;;5132192;27;20514;-67
2022/07/08 01:18:59;;;;;;;4.97;1.63;;;;;;;;;;5132798;27;20102;-67
2022/07/08 01:21:25;;;;;;;10.95;1.70;;;;;;;;;;5131424;27;20039;-67
2022/07/08 01:23:51;;;;;;;11.43;2.00;;;;;;;;;;5132129;27;20042;-67
2022/07/08 01:26:17;;;;;;;11.13;2.50;;;;;;;;;;5122787;27;20043;-67
2022/07/08 01:28:44;;;;;;;6.95;1.88;;;;;;;;;;5112197;28;20043;-67
2022/07/08 01:31:11;;;;;;;6.85;1.60;;;;;;;;;;5111145;28;20031;-67
2022/07/08 01:33:37;;;;;;;10.20;2.03;;;;;;;;;;5112043;28;20043;-67
2022/07/08 01:36:03;;;;;;;8.02;1.85;;;;;;;;;;5112099;28;20042;-67
2022/07/08 01:38:29;;;;;;;9.68;2.28;;;;;;;;;;5111541;28;20173;-67
2022/07/08 01:40:55;;;;;;;5.35;1.70;;;;;;;;;;5111890;28;20444;-67
2022/07/08 01:43:21;;;;;;;7.68;1.70;;;;;;;;;;5111575;28;20031;-67
2022/07/08 01:45:48;;;;;;;10.40;1.80;;;;;;;;;;5111177;28;20374;-67
2022/07/08 01:48:14;;;;;;;5.00;1.60;;;;;;;;;;5111881;28;20044;-67
2022/07/08 01:50:40;;;;;;;9.80;2.03;;;;;;;;;;5111597;28;20043;-67
2022/07/08 01:53:06;;;;;;;8.30;1.77;;;;;;;;;;5111343;28;20036;-67
2022/07/08 01:55:32;;;;;;;7.97;1.77;;;;;;;;;;5111856;28;20542;-67
2022/07/08 01:57:58;;;;;;;8.32;2.20;;;;;;;;;;5111916;28;20126;-67
2022/07/08 02:00:24;;;;;;;9.50;2.20;;;;;;;;;;5110883;28;20039;-67
2022/07/08 02:02:50;;;;;;;8.23;1.70;;;;;;;;;;5111759;28;20046;-67
2022/07/08 02:05:16;;;;;;;7.47;2.17;;;;;;;;;;5111280;28;20055;-67
2022/07/08 02:07:43;;;;;;;10.27;2.10;;;;;;;;;;5111059;28;20351;-67
2022/07/08 02:10:09;;;;;;;8.38;1.90;;;;;;;;;;5111797;28;20526;-67
2022/07/08 02:12:35;;;;;;;7.15;1.88;;;;;;;;;;5111665;28;20039;-67
2022/07/08 02:15:02;;;;;;;9.60;2.40;;;;;;;;;;5110998;28;20114;-67
2022/07/08 02:17:30;;;;;;;8.20;1.77;;;;;;;;;;5111719;28;20367;-67
2022/07/08 02:19:56;;;;;;;10.93;2.40;;;;;;;;;;5111704;28;20046;-67
2022/07/08 02:22:22;;;;;;;14.40;2.13;;;;;;;;;;5110770;28;20413;-67
2022/07/08 02:24:48;;;;;;;5.00;1.85;;;;;;;;;;5111400;28;20046;-67
2022/07/08 02:27:15;;;;;;;9.52;1.80;;;;;;;;;;5129184;28;20088;-67
2022/07/08 02:29:41;;;;;;;7.80;2.03;;;;;;;;;;5131537;27;20035;-67
2022/07/08 02:32:07;;;;;;;12.75;2.28;;;;;;;;;;5132628;27;20042;-67
2022/07/08 02:34:33;;;;;;;10.18;2.28;;;;;;;;;;5135991;27;20211;-67
2022/07/08 02:36:59;;;;;;;9.60;2.00;;;;;;;;;;5135382;27;20457;-67
2022/07/08 02:39:25;;;;;;;12.40;1.80;;;;;;;;;;5135856;27;20067;-67
2022/07/08 02:41:51;;;;;;;10.68;2.53;;;;;;;;;;5135772;27;20704;-67
2022/07/08 02:44:18;;;;;;;12.57;2.55;;;;;;;;;;5134758;27;20042;-67
2022/07/08 02:46:44;;;;;;;7.38;2.10;;;;;;;;;;5135606;27;20508;-67
2022/07/08 02:49:11;;;;;;;10.35;2.08;;;;;;;;;;5135824;27;20039;-67
2022/07/08 02:51:37;;;;;;;13.40;2.67;;;;;;;;;;5134692;27;20046;-67
2022/07/08 02:54:04;;;;;;;11.82;2.22;;;;;;;;;;5135477;27;20038;-67
2022/07/08 02:56:30;;;;;;;6.63;1.80;;;;;;;;;;5134154;27;20122;-67
2022/07/08 02:58:56;;;;;;;9.40;2.28;;;;;;;;;;5134606;27;20035;-67
2022/07/08 03:01:22;;;;;;;14.18;2.00;;;;;;;;;;5135283;27;20039;-67
2022/07/08 03:03:48;;;;;;;8.50;1.75;;;;;;;;;;5135126;27;20047;-67
2022/07/08 03:06:14;;;;;;;11.25;2.35;;;;;;;;;;5134541;27;20382;-67
2022/07/08 03:08:40;;;;;;;5.63;1.55;;;;;;;;;;5135286;27;20031;-67
2022/07/08 03:11:07;;;;;;;6.22;1.60;;;;;;;;;;5135073;27;20469;-67
2022/07/08 03:13:35;;;;;;;10.88;2.20;;;;;;;;;;5134348;27;20035;-67
2022/07/08 03:16:01;;;;;;;7.03;1.88;;;;;;;;;;5135133;27;20039;-67
2022/07/08 03:18:28;;;;;;;8.95;2.28;;;;;;;;;;5134766;27;20054;-67
2022/07/08 03:20:54;;;;;;;8.02;2.00;;;;;;;;;;5134262;27;20058;-67
2022/07/08 03:23:20;;;;;;;8.77;2.22;;;;;;;;;;5134881;27;20384;-67
2022/07/08 03:25:46;;;;;;;7.32;2.13;;;;;;;;;;5129425;27;20039;-67
2022/07/08 03:28:12;;;;;;;10.13;1.80;;;;;;;;;;5113613;28;20549;-67
2022/07/08 03:30:38;;;;;;;9.00;2.00;;;;;;;;;;5114265;28;20458;-67
2022/07/08 03:33:04;;;;;;;7.15;1.85;;;;;;;;;;5114213;28;20051;-67
2022/07/08 03:35:30;;;;;;;7.60;2.00;;;;;;;;;;5113697;27;20042;-67
2022/07/08 03:37:56;;;;;;;8.50;1.98;;;;;;;;;;5113965;28;20627;-67
2022/07/08 03:43:07;;;;;;;7.75;2.00;;;;;;;;;;5113006;28;20486;-67
2022/07/08 03:45:33;;;;;;;8.52;2.10;;;;;;;;;;5112048;28;20075;-67
2022/07/08 03:48:03;;;;;;;7.80;1.70;;;;;;;;;;5114082;28;20466;-67
2022/07/08 03:50:29;;;;;;;9.23;1.80;;;;;;;;;;5113396;28;20047;-67
2022/07/08 03:52:55;;;;;;;6.57;2.00;;;;;;;;;;5113451;28;20119;-67
2022/07/08 03:55:21;;;;;;;10.73;2.10;;;;;;;;;;5113927;28;20082;-67
2022/07/08 03:57:48;;;;;;;12.90;2.42;;;;;;;;;;5113103;28;20035;-67
2022/07/08 04:00:14;;;;;;;11.02;2.10;;;;;;;;;;5113873;28;20040;-67
2022/07/08 04:02:40;;;;;;;12.80;2.17;;;;;;;;;;5113608;28;20524;-67
2022/07/08 04:05:06;;;;;;;10.20;2.38;;;;;;;;;;5112921;28;20047;-67
2022/07/08 04:07:33;;;;;;;8.15;1.90;;;;;;;;;;5113322;28;20047;-67
2022/07/08 04:09:59;;;;;;;6.88;2.00;;;;;;;;;;5113622;28;20158;-67
2022/07/08 04:12:25;;;;;;;7.57;2.05;;;;;;;;;;5113375;27;20028;-67
2022/07/08 04:14:51;;;;;;;6.70;2.33;;;;;;;;;;5113038;28;20040;-67
2022/07/08 04:17:17;;;;;;;11.60;2.20;;;;;;;;;;5113454;28;20044;-67
2022/07/08 04:19:43;;;;;;;11.52;2.28;;;;;;;;;;5112957;27;20041;-67
2022/07/08 04:22:09;;;;;;;11.57;2.10;;;;;;;;;;5112440;28;20386;-67
2022/07/08 04:24:35;;;;;;;7.97;2.22;;;;;;;;;;5113037;28;20040;-67
2022/07/08 04:27:01;;;;;;;7.40;2.15;;;;;;;;;;5128687;27;20039;-67
2022/07/08 04:29:27;;;;;;;13.70;2.10;;;;;;;;;;5133100;27;20074;-67
2022/07/08 04:31:53;;;;;;;8.35;1.95;;;;;;;;;;5133603;27;20039;-67
2022/07/08 04:34:19;;;;;;;9.45;2.42;;;;;;;;;;5133687;27;20034;-67
2022/07/08 04:36:45;;;;;;;8.80;3.25;;;;;;;;;;5132777;27;20121;-67
2022/07/08 04:39:11;;;;;;;9.68;2.92;;;;;;;;;;5133359;27;20635;-67
2022/07/08 04:41:37;;;;;;;9.23;2.25;;;;;;;;;;5122947;27;20027;-67
2022/07/08 04:44:04;;;;;;;8.07;2.28;;;;;;;;;;5112129;28;20043;-67
2022/07/08 04:46:29;;;;;;;13.52;3.72;;;;;;;;;;5111484;28;20055;-67
2022/07/08 04:48:55;;;;;;;8.80;2.10;;;;;;;;;;5112803;28;20601;-67
2022/07/08 04:51:23;;;;;;;9.05;1.95;;;;;;;;;;5112003;28;20043;-67
2022/07/08 04:53:49;;;;;;;8.55;2.40;;;;;;;;;;5112686;28;20048;-67
2022/07/08 04:56:15;;;;;;;8.80;2.33;;;;;;;;;;5112234;28;20462;-67
2022/07/08 04:58:41;;;;;;;7.60;2.22;;;;;;;;;;5112003;28;20730;-67
2022/07/08 05:01:08;;;;;;;7.97;2.20;;;;;;;;;;5112444;27;20485;-67
2022/07/08 05:03:34;;;;;;;13.48;3.15;;;;;;;;;;5112127;28;20414;-67
2022/07/08 05:06:00;;;;;;;10.57;2.33;;;;;;;;;;5111447;28;20096;-67
2022/07/08 05:08:26;;;;;;;7.22;2.30;;;;;;;;;;5112311;28;20124;-67
2022/07/08 05:10:52;;;;;;;7.18;2.35;;;;;;;;;;5111846;28;20043;-67
2022/07/08 05:13:18;;;;;;;9.52;2.38;;;;;;;;;;5110340;27;20036;-67
2022/07/08 05:15:45;;;;;;;14.40;2.50;;;;;;;;;;5129378;27;20389;-67
2022/07/08 05:18:11;;;;;;;9.57;2.35;;;;;;;;;;5149176;27;20391;-67
2022/07/08 05:20:37;;;;;;;15.23;3.25;;;;;;;;;;5152026;27;20064;-67
2022/07/08 05:23:03;;;;;;;7.47;1.90;;;;;;;;;;5153299;27;20046;-67
2022/07/08 05:25:29;;;;;;;15.07;2.33;;;;;;;;;;5148815;27;20091;-67
2022/07/08 05:27:55;;;;;;;9.35;2.50;;;;;;;;;;5131813;27;20449;-67
2022/07/08 05:30:21;;;;;;;10.00;2.17;;;;;;;;;;5152369;27;20045;-67
2022/07/08 05:32:47;;;;;;;8.60;2.17;;;;;;;;;;5153007;27;20035;-67
2022/07/08 05:35:14;;;;;;;10.98;2.67;;;;;;;;;;5152583;27;20126;-67
2022/07/08 05:37:40;;;;;;;13.25;2.47;;;;;;;;;;5153088;27;20477;-67
2022/07/08 05:40:07;;;;;;;17.17;2.35;;;;;;;;;;5152835;27;20119;-67
2022/07/08 05:42:33;;;;;;;11.55;2.67;;;;;;;;;;5152169;27;20463;-67
2022/07/08 05:44:59;;;;;;;7.13;2.28;;;;;;;;;;5153020;27;20035;-67
2022/07/08 05:47:25;;;;;;;8.27;2.30;;;;;;;;;;5152793;27;20038;-66
2022/07/08 05:49:52;;;;;;;9.13;2.38;;;;;;;;;;5152216;27;20102;-67
2022/07/08 05:52:18;;;;;;;11.38;2.03;;;;;;;;;;5152479;27;20026;-67
2022/07/08 05:54:45;;;;;;;14.02;2.28;;;;;;;;;;5152781;27;20042;-67
2022/07/08 05:57:12;;;;;;;13.27;2.65;;;;;;;;;;5144619;27;20852;-67
2022/07/08 05:59:38;;;;;;;10.25;2.28;;;;;;;;;;5127749;27;20405;-65
2022/07/08 06:02:04;;;;;;;10.20;2.00;;;;;;;;;;5143891;27;20049;-65
2022/07/08 06:04:30;;;;;;;12.95;2.40;;;;;;;;;;5151662;27;20059;-65
2022/07/08 06:06:56;;;;;;;9.48;2.13;;;;;;;;;;5153317;27;20043;-66
2022/07/08 06:09:22;;;;;;;6.10;1.98;;;;;;;;;;5155474;27;20078;-66
2022/07/08 06:11:48;;;;;;;9.85;2.47;;;;;;;;;;5155795;27;20031;-66
2022/07/08 06:14:15;;;;;;;7.18;2.03;;;;;;;;;;5149649;27;20381;-66
2022/07/08 06:16:41;;;;;;;11.25;2.38;;;;;;;;;;5147332;27;20042;-66
2022/07/08 06:19:07;;;;;;;9.63;2.00;;;;;;;;;;5147157;27;20043;-66
2022/07/08 06:21:33;;;;;;;9.85;2.22;;;;;;;;;;5149990;27;20045;-66
2022/07/08 06:24:00;;;;;;;7.97;2.17;;;;;;;;;;5134623;27;20117;-67
2022/07/08 06:26:26;;;;;;;11.95;2.33;;;;;;;;;;5118752;27;20726;-67
2022/07/08 06:28:53;;;;;;;17.15;2.72;;;;;;;;;;5145134;27;20038;-66
2022/07/08 06:31:19;;;;;;;10.50;2.25;;;;;;;;;;5138488;27;20030;-67
2022/07/08 06:33:45;;;;;;;16.67;2.47;;;;;;;;;;5153574;27;20042;-67
2022/07/08 06:36:11;;;;;;;11.20;2.58;;;;;;;;;;5155644;27;20549;-68
2022/07/08 06:38:37;;;;;;;10.52;2.33;;;;;;;;;;5138646;27;20060;-67
2022/07/08 06:41:03;;;;;;;8.88;1.92;;;;;;;;;;5149130;27;20527;-66
2022/07/08 06:43:29;;;;;;;10.75;2.50;;;;;;;;;;5139313;27;20034;-67
2022/07/08 06:45:55;;;;;;;7.20;2.00;;;;;;;;;;5145576;27;20669;-66
2022/07/08 06:48:21;;;;;;;9.10;2.20;;;;;;;;;;5149727;27;20099;-67
2022/07/08 06:50:47;;;;;;;12.10;2.22;;;;;;;;;;5157332;27;20061;-67
2022/07/08 06:53:13;;;;;;;11.55;2.10;;;;;;;;;;5141350;27;20039;-67
2022/07/08 06:55:40;;;;;;;10.32;1.80;;;;;;;;;;5146481;27;20050;-66
2022/07/08 06:58:06;;;;;;;12.77;2.10;;;;;;;;;;5141561;27;20039;-65
2022/07/08 07:00:32;;;;;;;8.43;2.13;;;;;;;;;;5139317;27;20566;-67
2022/07/08 07:02:58;;;;;;;9.02;2.05;;;;;;;;;;5136222;27;20091;-65
2022/07/08 07:05:24;;;;;;;11.80;1.98;;;;;;;;;;5143029;27;20141;-65
2022/07/08 07:07:50;;;;;;;12.65;2.42;;;;;;;;;;5129405;27;20062;-66
2022/07/08 07:10:16;;;;;;;11.98;1.85;;;;;;;;;;5148714;27;20525;-66
2022/07/08 07:12:42;;;;;;;17.85;2.22;;;;;;;;;;5144022;27;20118;-67
2022/07/08 07:15:08;;;;;;;11.77;1.90;;;;;;;;;;5129508;27;20035;-67
2022/07/08 07:17:34;;;;;;;11.15;2.08;;;;;;;;;;5141638;27;20053;-67
2022/07/08 07:20:00;;;;;;;9.60;1.92;;;;;;;;;;5135592;27;20165;-68
2022/07/08 07:22:27;;;;;;;11.38;2.30;;;;;;;;;;5151896;27;20050;-67
2022/07/08 07:24:53;;;;;;;7.65;1.92;;;;;;;;;;5142848;27;20582;-65
2022/07/08 07:27:19;;;;;;;8.93;1.70;;;;;;;;;;5131512;27;20039;-66
2022/07/08 07:29:45;;;;;;;12.18;2.47;;;;;;;;;;5148969;27;20616;-66
2022/07/08 07:32:11;;;;;;;8.27;1.90;;;;;;;;;;5149989;27;20039;-65
2022/07/08 07:34:37;;;;;;;12.75;2.53;;;;;;;;;;5140673;27;20122;-65
2022/07/08 07:37:03;;;;;;;10.27;1.85;;;;;;;;;;5147954;27;20074;-64
2022/07/08 07:39:29;;;;;;;13.48;2.15;;;;;;;;;;5134310;27;20043;-65
2022/07/08 07:41:55;;;;;;;10.95;2.63;;;;;;;;;;5143841;27;20042;-64
2022/07/08 07:44:21;;;;;;;12.10;2.20;;;;;;;;;;5129432;27;20350;-65
2022/07/08 07:46:47;;;;;;;8.65;2.10;;;;;;;;;;5142134;27;20043;-65
2022/07/08 07:49:13;;;;;;;8.73;2.08;;;;;;;;;;5145044;27;20034;-65
2022/07/08 07:51:39;;;;;;;9.93;2.20;;;;;;;;;;5123861;27;20035;-65
2022/07/08 07:54:05;;;;;;;6.82;1.88;;;;;;;;;;5153499;27;20035;-65
2022/07/08 07:56:31;;;;;;;8.95;1.80;;;;;;;;;;5127711;27;20115;-65
2022/07/08 07:58:57;;;;;;;11.18;1.88;;;;;;;;;;5128517;27;20074;-65
2022/07/08 08:01:24;;;;;;;8.05;1.70;;;;;;;;;;5152326;27;20034;-66
2022/07/08 08:03:50;;;;;;;10.77;1.67;;;;;;;;;;5147442;27;20043;-66
2022/07/08 08:06:18;;;;;;;10.93;2.03;;;;;;;;;;5152861;27;20041;-66
2022/07/08 08:08:44;;;;;;;11.98;2.15;;;;;;;;;;5146579;27;20066;-65
2022/07/08 08:11:10;;;;;;;10.52;2.50;;;;;;;;;;5134083;27;20039;-66
2022/07/08 08:13:36;;;;;;;7.95;1.63;;;;;;;;;;5126779;27;20118;-64
2022/07/08 08:16:02;;;;;;;9.35;1.95;;;;;;;;;;5138237;27;20109;-68
2022/07/08 08:18:28;;;;;;;11.73;1.98;;;;;;;;;;5152267;27;20481;-68
2022/07/08 08:20:54;;;;;;;10.93;1.83;;;;;;;;;;5138811;27;20046;-66
2022/07/08 08:23:21;;;;;;;8.68;1.80;;;;;;;;;;5153817;27;20469;-68
2022/07/08 08:25:47;;;;;;;11.02;2.13;;;;;;;;;;5146627;27;20043;-67
2022/07/08 08:28:13;;;;;;;7.20;1.75;;;;;;;;;;5140699;27;20035;-67
2022/07/08 08:30:39;;;;;;;9.00;1.92;;;;;;;;;;5134989;27;20039;-69
2022/07/08 08:33:06;;;;;;;8.85;2.00;;;;;;;;;;5131540;27;20062;-66
2022/07/08 08:35:32;;;;;;;12.23;2.20;;;;;;;;;;5125580;27;20043;-66
2022/07/08 08:37:58;;;;;;;8.77;1.80;;;;;;;;;;5132513;27;20623;-66
2022/07/08 08:40:24;;;;;;;12.38;2.50;;;;;;;;;;5125563;27;20152;-65
2022/07/08 08:42:51;;;;;;;9.93;2.45;;;;;;;;;;5130584;27;20087;-67
2022/07/08 08:45:17;;;;;;;8.43;2.08;;;;;;;;;;5135842;27;20042;-66
2022/07/08 08:47:45;;;;;;;8.05;2.30;;;;;;;;;;5150834;27;20035;-65
2022/07/08 08:52:57;;;;;;;8.43;2.42;;;;;;;;;;5138627;27;20086;-67
2022/07/08 08:55:27;;;;;;;8.55;2.20;;;;;;;;;;5138160;27;20074;-67
2022/07/08 08:57:57;;;;;;;7.00;1.90;;;;;;;;;;5143284;27;20122;-67
2022/07/08 09:00:24;;;;;;;5.65;1.70;;;;;;;;;;5128339;27;20035;-67
2022/07/08 09:02:51;;;;;;;8.30;1.80;;;;;;;;;;5126611;27;20032;-66
2022/07/08 09:05:17;;;;;;;9.77;1.75;;;;;;;;;;5135924;27;20050;-66
2022/07/08 09:07:44;;;;;;;11.02;2.38;;;;;;;;;;5151986;27;20485;-66
2022/07/08 09:13:06;;;;;;;6.47;1.73;;;;;;;;;;5126027;27;20047;-67
2022/07/08 09:15:44;;;;;;;8.20;1.65;;;;;;;;;;5127192;27;20489;-67
2022/07/08 09:18:12;;;;;;;10.35;2.40;;;;;;;;;;5128036;27;20072;-67
2022/07/08 09:20:42;;;;;;;7.55;2.00;;;;;;;;;;5122628;27;20046;-65
2022/07/08 09:23:27;;;;;;;8.48;2.38;;;;;;;;;;5130893;27;20039;-65
2022/07/08 09:25:54;;;;;;;10.27;2.35;;;;;;;;;;5129966;27;20035;-66
2022/07/08 09:28:32;;;;;;;10.07;2.10;;;;;;;;;;5131453;27;20092;-65
2022/07/08 09:30:59;;;;;;;9.95;2.17;;;;;;;;;;5122539;27;20035;-66
2022/07/08 09:33:27;;;;;;;7.07;1.88;;;;;;;;;;5123742;27;20058;-66
2022/07/08 09:35:54;;;;;;;9.57;1.60;;;;;;;;;;5119304;27;20042;-68
2022/07/08 09:38:21;;;;;;;4.35;1.90;;;;;;;;;;5149289;27;20038;-65
2022/07/08 09:41:02;;;;;;;7.57;2.10;;;;;;;;;;5134415;27;20038;-64
2022/07/08 09:43:28;;;;;;;7.10;2.40;;;;;;;;;;5111474;28;20088;-64
2022/07/08 09:45:54;;;;;;;7.65;2.50;;;;;;;;;;5145157;27;20125;-65
2022/07/08 09:48:20;;;;;;;8.38;2.28;;;;;;;;;;5152023;27;20042;-65
2022/07/08 09:50:48;;;;;;;9.10;2.35;;;;;;;;;;5133058;27;20023;-65
2022/07/08 09:53:25;;;;;;;9.35;2.10;;;;;;;;;;5138978;27;20583;-67
2022/07/08 09:55:52;;;;;;;8.88;1.98;;;;;;;;;;5151708;27;20401;-67
2022/07/08 09:58:23;;;;;;;6.72;1.80;;;;;;;;;;5140477;27;20065;-66
2022/07/08 10:00:50;;;;;;;7.57;2.08;;;;;;;;;;5123395;27;20047;-65
2022/07/08 10:03:17;;;;;;;7.53;1.70;;;;;;;;;;5132633;27;20043;-65
2022/07/08 10:05:43;;;;;;;6.55;2.17;;;;;;;;;;5141601;27;20042;-65
2022/07/08 10:08:11;;;;;;;9.30;1.85;;;;;;;;;;5150168;27;20068;-65
2022/07/08 10:10:41;;;;;;;7.57;1.95;;;;;;;;;;5128165;27;20042;-66
2022/07/08 10:13:08;;;;;;;9.90;2.00;;;;;;;;;;5121734;27;20032;-65
2022/07/08 10:15:35;;;;;;;7.95;1.90;;;;;;;;;;5121041;27;20034;-64
2022/07/08 10:18:13;;;;;;;8.50;1.77;;;;;;;;;;5126060;27;20031;-66
2022/07/08 10:20:42;;;;;;;8.90;2.15;;;;;;;;;;5120597;27;20032;-66
2022/07/08 10:23:15;;;;;;;7.43;1.70;;;;;;;;;;5130138;27;20037;-66
2022/07/08 10:25:41;;;;;;;7.40;1.80;;;;;;;;;;5147549;27;20041;-66
2022/07/08 10:28:08;;;;;;;6.47;1.42;;;;;;;;;;5128403;27;20117;-68
2022/07/08 10:30:45;;;;;;;11.50;1.98;;;;;;;;;;5150709;27;20046;-68
2022/07/08 10:33:11;;;;;;;7.55;1.67;;;;;;;;;;5147947;27;20039;-68
2022/07/08 10:35:57;;;;;;;4.80;1.52;;;;;;;;;;5152341;27;20035;-68
2022/07/08 10:38:29;;;;;;;8.63;1.85;;;;;;;;;;5151846;27;20046;-68
2022/07/08 10:40:55;;;;;;;7.47;1.60;;;;;;;;;;5152206;27;20050;-66
2022/07/08 10:43:23;;;;;;;5.68;1.80;;;;;;;;;;5131952;27;20614;-67
2022/07/08 10:46:04;;;;;;;8.73;1.88;;;;;;;;;;5147836;27;20149;-66
2022/07/08 10:48:45;;;;;;;6.50;2.47;;;;;;;;;;5130694;27;20047;-66
2022/07/08 10:51:20;;;;;;;3.60;1.38;;;;;;;;;;5140641;27;21153;-66
2022/07/08 10:53:52;;;;;;;5.18;1.95;;;;;;;;;;5137248;27;20039;-67
2022/07/08 10:56:37;;;;;;;7.95;1.77;;;;;;;;;;5136206;27;20038;-67
2022/07/08 10:59:18;;;;;;;7.95;1.88;;;;;;;;;;5146177;27;20085;-67
2022/07/08 11:02:03;;;;;;;10.00;1.75;;;;;;;;;;5142006;27;20065;-67
2022/07/08 11:04:37;;;;;;;8.10;2.00;;;;;;;;;;5152990;27;20086;-66
2022/07/08 11:07:23;;;;;;;9.13;2.10;;;;;;;;;;5154418;27;20051;-65
2022/07/08 11:09:55;;;;;;;8.38;1.90;;;;;;;;;;5155228;27;20096;-67
2022/07/08 11:12:24;;;;;;;8.00;2.22;;;;;;;;;;5154433;27;20039;-67
2022/07/08 11:14:54;;;;;;;8.65;2.10;;;;;;;;;;5153503;27;20034;-67
2022/07/08 11:17:21;;;;;;;5.55;1.80;;;;;;;;;;5154572;27;20038;-67
2022/07/08 11:19:48;;;;;;;5.65;1.73;;;;;;;;;;5154738;27;20043;-67
2022/07/08 11:22:14;;;;;;;6.90;1.83;;;;;;;;;;5153663;27;20087;-68
2022/07/08 11:24:41;;;;;;;7.00;1.83;;;;;;;;;;5155048;27;20061;-68
2022/07/08 11:27:07;;;;;;;9.65;2.00;;;;;;;;;;5152942;27;20091;-68
2022/07/08 11:29:34;;;;;;;5.00;1.90;;;;;;;;;;5153874;27;20035;-68
2022/07/08 11:32:03;;;;;;;4.90;1.88;;;;;;;;;;5152684;27;20664;-68
2022/07/08 11:34:29;;;;;;;7.18;1.92;;;;;;;;;;5143241;27;20035;-68
2022/07/08 11:36:56;;;;;;;8.40;2.47;;;;;;;;;;5127094;27;20055;-67
2022/07/08 11:39:22;;;;;;;12.85;2.08;;;;;;;;;;5136332;27;20089;-68
2022/07/08 11:41:48;;;;;;;8.27;1.65;;;;;;;;;;5130262;27;20033;-68
2022/07/08 11:44:20;;;;;;;4.57;1.55;;;;;;;;;;5134768;27;20051;-67
2022/07/08 11:46:47;;;;;;;8.95;2.33;;;;;;;;;;5155497;27;20481;-65
2022/07/08 11:49:13;;;;;;;6.32;1.67;;;;;;;;;;5154592;27;20034;-66
2022/07/08 11:51:44;;;;;;;9.82;1.88;;;;;;;;;;5136056;27;20043;-66
2022/07/08 11:54:10;;;;;;;5.03;1.70;;;;;;;;;;5152726;27;20477;-65
2022/07/08 11:56:36;;;;;;;4.70;1.88;;;;;;;;;;5153639;27;20047;-66
2022/07/08 11:59:02;;;;;;;5.22;1.52;;;;;;;;;;5153692;27;20785;-66
2022/07/08 12:01:28;;;;;;;5.20;1.92;;;;;;;;;;5146438;27;20042;-66
2022/07/08 12:03:54;;;;;;;4.00;1.80;;;;;;;;;;5154218;27;20065;-67
2022/07/08 12:06:24;;;;;;;7.38;1.70;;;;;;;;;;5153866;27;20034;-67
2022/07/08 12:08:51;;;;;;;6.00;1.80;;;;;;;;;;5155070;27;20389;-65
2022/07/08 12:11:21;;;;;;;7.13;1.45;;;;;;;;;;5153128;27;20054;-65
2022/07/08 12:13:51;;;;;;;6.05;2.22;;;;;;;;;;5146885;27;20130;-67
2022/07/08 12:16:29;;;;;;;6.30;2.15;;;;;;;;;;5152450;27;20034;-67
2022/07/08 12:18:55;;;;;;;4.50;1.58;;;;;;;;;;5154455;27;20053;-67
2022/07/08 12:21:22;;;;;;;6.10;1.60;;;;;;;;;;5154158;27;20074;-67
2022/07/08 12:23:56;;;;;;;3.38;1.70;;;;;;;;;;5154713;27;20095;-67
2022/07/08 12:26:22;;;;;;;6.35;1.83;;;;;;;;;;5143388;27;20062;-67
2022/07/08 12:28:48;;;;;;;6.32;1.83;;;;;;;;;;5138904;27;20053;-66
2022/07/08 12:31:35;;;;;;;6.43;2.20;;;;;;;;;;5147740;27;20584;-66
2022/07/08 12:34:04;;;;;;;5.38;1.67;;;;;;;;;;5149500;27;20038;-67
2022/07/08 12:36:31;;;;;;;7.65;1.70;;;;;;;;;;5151008;27;20082;-67
2022/07/08 12:38:57;;;;;;;5.93;1.95;;;;;;;;;;5147808;27;20626;-67
2022/07/08 12:41:23;;;;;;;8.15;2.47;;;;;;;;;;5153653;27;20043;-66
2022/07/08 12:43:49;;;;;;;7.38;1.92;;;;;;;;;;5152653;27;20043;-66
2022/07/08 12:46:15;;;;;;;5.70;2.08;;;;;;;;;;5147293;27;20043;-66
2022/07/08 12:48:41;;;;;;;7.10;1.73;;;;;;;;;;5153204;27;20046;-66
2022/07/08 12:51:07;;;;;;;6.25;1.55;;;;;;;;;;5152678;27;20377;-65
2022/07/08 12:53:33;;;;;;;7.85;1.90;;;;;;;;;;5153139;27;20817;-66
2022/07/08 12:56:00;;;;;;;7.50;1.63;;;;;;;;;;5154024;27;20039;-67
2022/07/08 12:58:26;;;;;;;5.63;2.10;;;;;;;;;;5153089;27;20057;-69
2022/07/08 13:00:53;;;;;;;5.68;1.90;;;;;;;;;;5147989;27;20039;-66
2022/07/08 13:03:18;;;;;;;4.82;1.58;;;;;;;;;;5147001;27;20036;-67
2022/07/08 13:05:45;;;;;;;3.38;1.83;;;;;;;;;;5151606;27;20117;-66
2022/07/08 13:08:11;;;;;;;6.22;1.80;;;;;;;;;;5153622;27;20399;-67
2022/07/08 13:10:37;;;;;;;7.43;1.83;;;;;;;;;;5151673;27;20038;-67
2022/07/08 13:13:07;;;;;;;6.18;2.03;;;;;;;;;;5152684;27;20030;-69
2022/07/08 13:15:34;;;;;;;7.00;2.33;;;;;;;;;;5153069;27;20364;-69
2022/07/08 13:18:00;;;;;;;7.60;2.38;;;;;;;;;;5138046;27;20035;-69
2022/07/08 13:20:26;;;;;;;8.40;2.30;;;;;;;;;;5151823;27;20078;-69
2022/07/08 13:22:52;;;;;;;8.25;2.33;;;;;;;;;;5153060;27;20074;-69
2022/07/08 13:25:18;;;;;;;10.27;2.50;;;;;;;;;;5149762;27;20050;-68
2022/07/08 13:27:45;;;;;;;8.93;2.28;;;;;;;;;;5132043;27;20050;-68
2022/07/08 13:30:13;;;;;;;7.63;2.38;;;;;;;;;;5148103;27;20041;-70
2022/07/08 13:32:39;;;;;;;8.23;2.35;;;;;;;;;;5153435;27;20416;-69
2022/07/08 13:35:06;;;;;;;8.13;2.55;;;;;;;;;;5134015;27;20066;-69
2022/07/08 13:37:32;;;;;;;7.38;2.28;;;;;;;;;;5141946;27;20042;-69
2022/07/08 13:39:58;;;;;;;7.53;2.38;;;;;;;;;;5153366;27;20041;-69
2022/07/08 13:42:24;;;;;;;4.85;1.75;;;;;;;;;;5152701;27;20039;-69
2022/07/08 13:44:50;;;;;;;8.60;2.28;;;;;;;;;;5153882;27;20425;-69
2022/07/08 13:47:16;;;;;;;6.95;2.55;;;;;;;;;;5153439;27;20031;-69
2022/07/08 13:49:42;;;;;;;5.65;2.30;;;;;;;;;;5153359;27;20038;-69
2022/07/08 13:52:08;;;;;;;6.65;2.22;;;;;;;;;;5152076;27;20038;-69
2022/07/08 13:54:34;;;;;;;6.90;2.30;;;;;;;;;;5153632;27;20031;-69
2022/07/08 13:57:00;;;;;;;10.15;2.40;;;;;;;;;;5153270;27;20049;-69
2022/07/08 13:59:27;;;;;;;5.88;2.15;;;;;;;;;;5151373;27;20104;-69
2022/07/08 14:01:53;;;;;;;7.10;2.13;;;;;;;;;;5153229;27;20070;-69
2022/07/08 14:04:19;;;;;;;7.63;2.38;;;;;;;;;;5153198;27;20428;-69
2022/07/08 14:06:46;;;;;;;9.18;2.00;;;;;;;;;;5152515;27;20055;-69
2022/07/08 14:09:12;;;;;;;5.90;2.08;;;;;;;;;;5153190;27;20527;-69
2022/07/08 14:11:38;;;;;;;8.52;2.30;;;;;;;;;;5153068;27;20035;-69
2022/07/08 14:14:04;;;;;;;6.72;2.28;;;;;;;;;;5152676;27;20416;-69
2022/07/08 14:16:30;;;;;;;5.80;2.35;;;;;;;;;;5153074;27;20098;-69
2022/07/08 14:18:56;;;;;;;7.50;2.00;;;;;;;;;;5152840;27;20038;-69
2022/07/08 14:21:22;;;;;;;4.32;1.50;;;;;;;;;;5152290;27;20052;-69
2022/07/08 14:23:48;;;;;;;4.50;1.67;;;;;;;;;;5153462;27;20074;-69
2022/07/08 14:26:15;;;;;;;7.63;1.98;;;;;;;;;;5143658;27;20062;-69
2022/07/08 14:28:41;;;;;;;9.20;1.90;;;;;;;;;;5133249;27;20425;-69
2022/07/08 14:31:07;;;;;;;6.47;2.10;;;;;;;;;;5135603;27;20046;-69
2022/07/08 14:33:34;;;;;;;6.68;1.80;;;;;;;;;;5135862;27;20092;-69
2022/07/08 14:36:02;;;;;;;7.55;1.52;;;;;;;;;;5135095;27;20043;-69
2022/07/08 14:38:28;;;;;;;5.15;1.85;;;;;;;;;;5135469;27;20042;-69
2022/07/08 14:40:54;;;;;;;5.93;1.80;;;;;;;;;;5135845;27;20043;-69
2022/07/08 14:43:20;;;;;;;5.50;1.98;;;;;;;;;;5135304;27;20038;-69
2022/07/08 14:45:47;;;;;;;7.03;2.13;;;;;;;;;;5135813;27;20050;-69